Time;durP1;ratioP1;P1;durP2;ratioP2;P2;SDS_P1;SDS_P2;PMS_P1;PMS_P2;Temp;Humidity;BMP_temperature;BMP_pressure;BME280_temperature;BME280_humidity;BME280_pressure;Samples;Min_cycle;Max_cycle;Signal;HPM_P1;HPM_P2
2022/04/03 00:00:45;;;;;;;17.00;4.22;;;;;;;;;;5094711;28;20020;-60
2022/04/03 00:03:11;;;;;;;17.88;5.25;;;;;;;;;;5094768;28;20055;-60
2022/04/03 00:05:43;;;;;;;8.85;3.50;;;;;;;;;;5094494;28;20490;-61
2022/04/03 00:08:10;;;;;;;14.35;4.30;;;;;;;;;;5094505;28;20105;-61
2022/04/03 00:10:36;;;;;;;9.85;3.30;;;;;;;;;;5094823;28;20503;-60
2022/04/03 00:13:03;;;;;;;11.85;3.50;;;;;;;;;;5094542;28;20024;-61
2022/04/03 00:15:29;;;;;;;11.73;3.63;;;;;;;;;;5099247;28;20035;-61
2022/04/03 00:17:56;;;;;;;15.10;3.83;;;;;;;;;;5098407;28;20476;-60
2022/04/03 00:20:22;;;;;;;8.40;3.60;;;;;;;;;;5115010;28;20020;-60
2022/04/03 00:22:49;;;;;;;12.43;3.58;;;;;;;;;;5104676;28;20020;-60
2022/04/03 00:25:16;;;;;;;12.32;4.20;;;;;;;;;;5094347;28;20026;-61
2022/04/03 00:27:42;;;;;;;9.95;3.53;;;;;;;;;;5094357;28;20112;-60
2022/04/03 00:30:08;;;;;;;6.70;3.42;;;;;;;;;;5115247;28;20020;-60
2022/04/03 00:32:34;;;;;;;9.63;4.20;;;;;;;;;;5115234;28;20020;-60
2022/04/03 00:35:01;;;;;;;10.20;3.70;;;;;;;;;;5114970;28;20040;-60
2022/04/03 00:37:27;;;;;;;8.95;3.65;;;;;;;;;;5114292;28;20083;-60
2022/04/03 00:39:53;;;;;;;9.10;3.72;;;;;;;;;;5115131;28;20035;-60
2022/04/03 00:42:20;;;;;;;8.40;3.92;;;;;;;;;;5114850;28;20020;-61
2022/04/03 00:44:46;;;;;;;10.27;3.58;;;;;;;;;;5114735;28;20023;-61
2022/04/03 00:47:12;;;;;;;8.63;3.78;;;;;;;;;;5114789;28;20119;-59
2022/04/03 00:49:39;;;;;;;7.90;3.90;;;;;;;;;;5114588;28;20027;-60
2022/04/03 00:52:05;;;;;;;6.32;3.40;;;;;;;;;;5114498;28;20073;-61
2022/04/03 00:54:31;;;;;;;7.13;3.20;;;;;;;;;;5114789;28;20545;-59
2022/04/03 00:56:58;;;;;;;6.75;3.50;;;;;;;;;;5114530;28;20039;-60
2022/04/03 00:59:24;;;;;;;7.70;4.00;;;;;;;;;;5114692;28;20031;-60
2022/04/03 01:01:50;;;;;;;8.23;3.90;;;;;;;;;;5114985;28;20500;-60
2022/04/03 01:04:16;;;;;;;14.02;3.97;;;;;;;;;;5115074;28;20458;-61
2022/04/03 01:06:42;;;;;;;9.10;3.42;;;;;;;;;;5114842;28;20081;-61
2022/04/03 01:09:09;;;;;;;6.55;3.70;;;;;;;;;;5100238;28;20028;-61
2022/04/03 01:11:36;;;;;;;12.00;3.83;;;;;;;;;;5094697;28;20028;-60
2022/04/03 01:14:02;;;;;;;12.50;3.72;;;;;;;;;;5094431;28;20024;-60
2022/04/03 01:16:28;;;;;;;5.95;3.08;;;;;;;;;;5094399;28;20073;-61
2022/04/03 01:18:54;;;;;;;6.45;3.50;;;;;;;;;;5094161;28;20122;-60
2022/04/03 01:21:20;;;;;;;7.30;3.25;;;;;;;;;;5094208;28;20055;-60
2022/04/03 01:23:46;;;;;;;4.72;2.88;;;;;;;;;;5094192;28;20031;-61
2022/04/03 01:26:12;;;;;;;6.53;3.30;;;;;;;;;;5094341;28;20475;-60
2022/04/03 01:28:39;;;;;;;6.57;3.58;;;;;;;;;;5094120;28;20382;-61
2022/04/03 01:31:05;;;;;;;6.50;3.10;;;;;;;;;;5094018;28;20024;-60
2022/04/03 01:33:31;;;;;;;6.35;3.38;;;;;;;;;;5093965;28;20027;-60
2022/04/03 01:35:57;;;;;;;5.15;3.08;;;;;;;;;;5093926;28;20468;-60
2022/04/03 01:38:23;;;;;;;7.97;3.83;;;;;;;;;;5093621;28;20044;-62
2022/04/03 01:40:49;;;;;;;6.70;3.53;;;;;;;;;;5093890;28;20046;-61
2022/04/03 01:43:15;;;;;;;5.78;3.53;;;;;;;;;;5093952;28;20024;-61
2022/04/03 01:45:41;;;;;;;6.50;3.92;;;;;;;;;;5093897;28;20034;-60
2022/04/03 01:48:08;;;;;;;7.88;3.50;;;;;;;;;;5093705;28;20020;-60
2022/04/03 01:50:34;;;;;;;5.03;2.65;;;;;;;;;;5093183;28;20016;-60
2022/04/03 01:53:00;;;;;;;6.03;3.28;;;;;;;;;;5093325;28;20024;-61
2022/04/03 01:55:26;;;;;;;5.35;2.97;;;;;;;;;;5092917;28;20047;-60
2022/04/03 01:57:53;;;;;;;4.72;2.85;;;;;;;;;;5093396;28;20082;-60
2022/04/03 02:00:19;;;;;;;6.72;3.00;;;;;;;;;;5093323;28;20016;-60
2022/04/03 02:02:46;;;;;;;4.68;2.92;;;;;;;;;;5093455;28;20032;-60
2022/04/03 02:05:12;;;;;;;4.82;2.65;;;;;;;;;;5093169;28;20012;-60
2022/04/03 02:07:39;;;;;;;5.63;3.25;;;;;;;;;;5093142;28;20024;-61
2022/04/03 02:10:08;;;;;;;4.80;2.85;;;;;;;;;;5093184;28;20132;-60
2022/04/03 02:12:35;;;;;;;5.90;2.80;;;;;;;;;;5093260;28;20020;-61
2022/04/03 02:15:01;;;;;;;5.65;3.17;;;;;;;;;;5093155;28;20486;-60
2022/04/03 02:17:28;;;;;;;6.40;2.88;;;;;;;;;;5092957;28;20032;-60
2022/04/03 02:19:54;;;;;;;5.47;2.95;;;;;;;;;;5092945;28;20403;-60
2022/04/03 02:22:20;;;;;;;4.88;2.60;;;;;;;;;;5092866;28;20027;-60
2022/04/03 02:24:46;;;;;;;11.23;3.63;;;;;;;;;;5092530;28;20023;-60
2022/04/03 02:27:12;;;;;;;5.40;2.78;;;;;;;;;;5092090;28;20066;-60
2022/04/03 02:29:38;;;;;;;5.68;2.30;;;;;;;;;;5092386;28;20078;-59
2022/04/03 02:32:05;;;;;;;4.68;2.65;;;;;;;;;;5091876;28;20013;-60
2022/04/03 02:34:31;;;;;;;4.57;2.53;;;;;;;;;;5092531;28;20095;-59
2022/04/03 02:36:57;;;;;;;4.65;2.42;;;;;;;;;;5092545;28;20038;-59
2022/04/03 02:39:23;;;;;;;5.05;2.45;;;;;;;;;;5092331;28;20052;-60
2022/04/03 02:41:50;;;;;;;5.20;2.03;;;;;;;;;;5092454;28;20046;-59
2022/04/03 02:44:16;;;;;;;4.40;2.10;;;;;;;;;;5092369;28;20055;-60
2022/04/03 02:46:42;;;;;;;4.13;1.90;;;;;;;;;;5092294;28;20029;-61
2022/04/03 02:49:09;;;;;;;3.67;2.03;;;;;;;;;;5092453;28;20496;-60
2022/04/03 02:51:38;;;;;;;4.22;2.42;;;;;;;;;;5092522;28;20020;-60
2022/04/03 02:54:04;;;;;;;4.50;2.20;;;;;;;;;;5092535;28;20024;-60
2022/04/03 02:56:30;;;;;;;5.35;2.38;;;;;;;;;;5092171;28;20055;-60
2022/04/03 02:58:56;;;;;;;5.47;1.67;;;;;;;;;;5092292;28;20035;-60
2022/04/03 03:01:23;;;;;;;4.20;2.20;;;;;;;;;;5092223;28;20016;-60
2022/04/03 03:03:50;;;;;;;3.55;1.90;;;;;;;;;;5092304;28;20024;-60
2022/04/03 03:06:16;;;;;;;3.38;1.88;;;;;;;;;;5092161;28;20418;-62
2022/04/03 03:08:43;;;;;;;4.50;2.15;;;;;;;;;;5091061;28;20020;-59
2022/04/03 03:11:10;;;;;;;4.07;2.00;;;;;;;;;;5092182;28;20020;-60
2022/04/03 03:13:36;;;;;;;4.72;1.92;;;;;;;;;;5091953;28;20024;-59
2022/04/03 03:16:03;;;;;;;3.88;1.90;;;;;;;;;;5092032;28;20024;-60
2022/04/03 03:18:29;;;;;;;4.32;2.22;;;;;;;;;;5091608;28;20028;-60
2022/04/03 03:20:55;;;;;;;4.45;2.47;;;;;;;;;;5091496;28;20074;-60
2022/04/03 03:23:21;;;;;;;3.97;2.08;;;;;;;;;;5091665;28;20115;-61
2022/04/03 03:25:47;;;;;;;3.78;2.10;;;;;;;;;;5092189;28;20012;-60
2022/04/03 03:28:13;;;;;;;3.80;1.85;;;;;;;;;;5091767;28;20542;-60
2022/04/03 03:30:40;;;;;;;4.32;2.33;;;;;;;;;;5091664;28;20020;-60
2022/04/03 03:33:06;;;;;;;4.15;2.22;;;;;;;;;;5091536;28;20463;-60
2022/04/03 03:35:33;;;;;;;3.70;2.20;;;;;;;;;;5091662;28;20028;-61
2022/04/03 03:38:00;;;;;;;5.53;2.05;;;;;;;;;;5091210;28;20044;-61
2022/04/03 03:40:27;;;;;;;3.60;1.77;;;;;;;;;;5091408;28;20020;-61
2022/04/03 03:42:53;;;;;;;3.83;2.17;;;;;;;;;;5091411;28;20028;-61
2022/04/03 03:45:19;;;;;;;4.10;2.33;;;;;;;;;;5091534;28;20471;-61
2022/04/03 03:47:46;;;;;;;3.50;2.10;;;;;;;;;;5091291;28;20031;-61
2022/04/03 03:50:13;;;;;;;6.15;2.30;;;;;;;;;;5091461;28;20069;-61
2022/04/03 03:52:40;;;;;;;3.95;2.15;;;;;;;;;;5091391;28;20042;-61
2022/04/03 03:55:06;;;;;;;4.43;2.10;;;;;;;;;;5091299;28;20024;-61
2022/04/03 03:57:32;;;;;;;3.70;1.95;;;;;;;;;;5091220;28;20086;-61
2022/04/03 03:59:58;;;;;;;3.85;2.08;;;;;;;;;;5106403;28;20487;-61
2022/04/03 04:02:24;;;;;;;4.60;1.92;;;;;;;;;;5111442;28;20449;-61
2022/04/03 04:04:50;;;;;;;5.43;2.05;;;;;;;;;;5111501;28;20139;-61
2022/04/03 04:07:16;;;;;;;3.53;2.15;;;;;;;;;;5111493;28;20531;-61
2022/04/03 04:09:43;;;;;;;3.80;2.00;;;;;;;;;;5111463;28;20379;-61
2022/04/03 04:12:09;;;;;;;3.90;2.20;;;;;;;;;;5111380;28;20019;-61
2022/04/03 04:14:36;;;;;;;4.35;1.98;;;;;;;;;;5111482;28;20015;-60
2022/04/03 04:17:02;;;;;;;4.30;2.10;;;;;;;;;;5111282;28;20028;-61
2022/04/03 04:19:28;;;;;;;3.67;2.15;;;;;;;;;;5113650;28;20065;-61
2022/04/03 04:21:54;;;;;;;4.47;1.77;;;;;;;;;;5115529;28;20024;-60
2022/04/03 04:24:20;;;;;;;4.82;2.65;;;;;;;;;;5115200;28;20486;-60
2022/04/03 04:26:46;;;;;;;4.28;2.47;;;;;;;;;;5115213;28;20019;-60
2022/04/03 04:29:12;;;;;;;4.35;2.22;;;;;;;;;;5115670;28;20044;-60
2022/04/03 04:31:38;;;;;;;4.72;1.80;;;;;;;;;;5115657;28;20026;-60
2022/04/03 04:34:05;;;;;;;3.83;1.98;;;;;;;;;;5115372;28;20024;-60
2022/04/03 04:36:31;;;;;;;4.22;1.88;;;;;;;;;;5115275;28;20020;-60
2022/04/03 04:38:57;;;;;;;3.90;1.83;;;;;;;;;;5115368;28;20451;-60
2022/04/03 04:41:24;;;;;;;4.40;2.30;;;;;;;;;;5115341;28;20390;-61
2022/04/03 04:43:50;;;;;;;3.70;1.88;;;;;;;;;;5115586;28;20085;-61
2022/04/03 04:46:16;;;;;;;3.95;2.08;;;;;;;;;;5115284;28;20590;-61
2022/04/03 04:48:42;;;;;;;3.60;1.90;;;;;;;;;;5115401;28;20024;-60
2022/04/03 04:51:09;;;;;;;3.50;1.65;;;;;;;;;;5115079;28;20034;-61
2022/04/03 04:53:35;;;;;;;2.78;1.75;;;;;;;;;;5115391;28;20016;-61
2022/04/03 04:56:01;;;;;;;3.38;1.90;;;;;;;;;;5115442;28;20027;-61
2022/04/03 04:58:28;;;;;;;3.90;2.10;;;;;;;;;;5115209;28;20035;-61
2022/04/03 05:00:54;;;;;;;4.40;1.98;;;;;;;;;;5115021;28;20509;-60
2022/04/03 05:03:20;;;;;;;3.70;1.92;;;;;;;;;;5115047;28;20112;-61
2022/04/03 05:05:46;;;;;;;4.00;2.33;;;;;;;;;;5114810;28;20024;-60
2022/04/03 05:08:13;;;;;;;4.28;2.05;;;;;;;;;;5114757;28;20030;-60
2022/04/03 05:10:39;;;;;;;3.63;1.70;;;;;;;;;;5114878;28;20016;-60
2022/04/03 05:13:11;;;;;;;5.72;1.92;;;;;;;;;;5114843;28;20031;-61
2022/04/03 05:15:37;;;;;;;3.90;1.90;;;;;;;;;;5114801;28;20035;-60
2022/04/03 05:18:04;;;;;;;3.60;1.70;;;;;;;;;;5114567;28;20027;-60
2022/04/03 05:20:30;;;;;;;3.42;1.75;;;;;;;;;;5114284;28;20498;-61
2022/04/03 05:22:56;;;;;;;3.05;1.65;;;;;;;;;;5114482;28;20023;-61
2022/04/03 05:25:22;;;;;;;3.22;1.73;;;;;;;;;;5114610;28;20020;-61
2022/04/03 05:27:48;;;;;;;2.97;1.60;;;;;;;;;;5114594;28;20102;-61
2022/04/03 05:30:15;;;;;;;3.22;1.77;;;;;;;;;;5113371;28;20425;-61
2022/04/03 05:32:41;;;;;;;3.42;1.90;;;;;;;;;;5114160;28;20106;-61
2022/04/03 05:35:08;;;;;;;5.57;2.15;;;;;;;;;;5114037;28;20045;-60
2022/04/03 05:37:36;;;;;;;4.32;2.05;;;;;;;;;;5113486;28;20118;-61
2022/04/03 05:40:04;;;;;;;4.07;2.00;;;;;;;;;;5113710;28;20023;-60
2022/04/03 05:42:33;;;;;;;4.95;1.88;;;;;;;;;;5113560;28;20534;-60
2022/04/03 05:44:59;;;;;;;3.63;1.95;;;;;;;;;;5113800;28;20020;-60
2022/04/03 05:47:25;;;;;;;3.65;1.75;;;;;;;;;;5113851;28;20019;-61
2022/04/03 05:49:51;;;;;;;3.35;1.75;;;;;;;;;;5113576;28;20148;-60
2022/04/03 05:52:17;;;;;;;3.75;1.95;;;;;;;;;;5113551;28;20049;-60
2022/04/03 05:54:43;;;;;;;3.30;1.80;;;;;;;;;;5113688;28;20530;-61
2022/04/03 05:57:10;;;;;;;3.97;1.90;;;;;;;;;;5113341;28;20470;-60
2022/04/03 05:59:37;;;;;;;4.25;1.80;;;;;;;;;;5112519;28;20073;-60
2022/04/03 06:02:05;;;;;;;4.28;1.83;;;;;;;;;;5113315;28;20065;-61
2022/04/03 06:04:32;;;;;;;4.88;1.80;;;;;;;;;;5113439;28;20047;-62
2022/04/03 06:06:58;;;;;;;3.65;1.88;;;;;;;;;;5113255;28;20024;-61
2022/04/03 06:09:25;;;;;;;3.40;1.70;;;;;;;;;;5113273;28;20471;-61
2022/04/03 06:11:52;;;;;;;4.80;2.03;;;;;;;;;;5113064;28;20484;-61
2022/04/03 06:14:18;;;;;;;3.65;1.85;;;;;;;;;;5113049;28;20058;-62
2022/04/03 06:16:44;;;;;;;3.88;1.70;;;;;;;;;;5110505;28;20020;-60
2022/04/03 06:19:12;;;;;;;4.93;2.10;;;;;;;;;;5092779;28;20487;-59
2022/04/03 06:21:38;;;;;;;4.60;2.28;;;;;;;;;;5092731;28;20123;-60
2022/04/03 06:24:04;;;;;;;4.05;1.83;;;;;;;;;;5092610;28;20024;-60
2022/04/03 06:26:30;;;;;;;6.10;2.10;;;;;;;;;;5093115;28;20115;-61
2022/04/03 06:28:57;;;;;;;7.53;2.35;;;;;;;;;;5100284;28;20050;-61
2022/04/03 06:31:23;;;;;;;4.80;1.80;;;;;;;;;;5102928;28;20502;-60
2022/04/03 06:33:49;;;;;;;6.03;2.75;;;;;;;;;;5101442;28;20126;-60
2022/04/03 06:36:15;;;;;;;5.20;1.65;;;;;;;;;;5102746;28;20057;-61
2022/04/03 06:38:41;;;;;;;4.88;1.80;;;;;;;;;;5102495;28;20040;-61
2022/04/03 06:41:08;;;;;;;3.83;1.98;;;;;;;;;;5100953;28;20008;-61
2022/04/03 06:43:35;;;;;;;4.07;1.92;;;;;;;;;;5103778;28;20524;-61
2022/04/03 06:46:01;;;;;;;3.20;1.58;;;;;;;;;;5101362;28;20501;-61
2022/04/03 06:48:29;;;;;;;3.17;1.40;;;;;;;;;;5099983;28;20034;-60
2022/04/03 06:50:55;;;;;;;3.83;1.80;;;;;;;;;;5100956;28;20017;-60
2022/04/03 06:53:21;;;;;;;7.00;2.10;;;;;;;;;;5096884;28;20020;-62
2022/04/03 06:55:48;;;;;;;2.92;1.52;;;;;;;;;;5097748;28;20024;-61
2022/04/03 06:58:14;;;;;;;4.32;2.00;;;;;;;;;;5100785;28;20089;-60
2022/04/03 07:00:41;;;;;;;3.63;1.75;;;;;;;;;;5112380;28;20024;-61
2022/04/03 07:03:07;;;;;;;4.22;1.88;;;;;;;;;;5097071;28;20425;-61
2022/04/03 07:05:33;;;;;;;6.70;1.88;;;;;;;;;;5091549;28;20047;-61
2022/04/03 07:07:59;;;;;;;3.63;1.85;;;;;;;;;;5091535;28;20374;-61
2022/04/03 07:10:25;;;;;;;4.47;1.85;;;;;;;;;;5073472;28;20366;-61
2022/04/03 07:12:51;;;;;;;4.40;1.73;;;;;;;;;;5091428;28;20028;-61
2022/04/03 07:15:17;;;;;;;5.18;1.80;;;;;;;;;;5105936;28;20023;-60
2022/04/03 07:17:44;;;;;;;4.13;1.98;;;;;;;;;;5111298;28;20038;-60
2022/04/03 07:20:14;;;;;;;5.65;2.20;;;;;;;;;;5111550;28;20020;-61
2022/04/03 07:22:43;;;;;;;3.97;1.90;;;;;;;;;;5107509;28;20112;-61
2022/04/03 07:25:10;;;;;;;5.43;2.35;;;;;;;;;;5092543;28;20051;-60
2022/04/03 07:27:37;;;;;;;4.97;2.72;;;;;;;;;;5091872;28;20020;-61
2022/04/03 07:30:04;;;;;;;3.75;2.00;;;;;;;;;;5091736;28;20023;-61
2022/04/03 07:32:31;;;;;;;7.53;2.55;;;;;;;;;;5091601;28;20032;-61
2022/04/03 07:34:57;;;;;;;5.18;2.40;;;;;;;;;;5091209;28;20020;-61
2022/04/03 07:37:23;;;;;;;6.00;2.50;;;;;;;;;;5091142;28;20476;-61
2022/04/03 07:39:49;;;;;;;8.13;2.90;;;;;;;;;;5091544;28;20028;-61
2022/04/03 07:42:15;;;;;;;5.15;2.40;;;;;;;;;;5090745;28;20107;-61
2022/04/03 07:44:41;;;;;;;5.40;2.42;;;;;;;;;;5091113;28;20028;-61
2022/04/03 07:47:07;;;;;;;4.35;2.30;;;;;;;;;;5091333;28;20023;-60
2022/04/03 07:49:33;;;;;;;5.00;2.72;;;;;;;;;;5090839;28;20465;-61
2022/04/03 07:52:00;;;;;;;9.90;3.28;;;;;;;;;;5106979;28;20102;-61
2022/04/03 07:54:26;;;;;;;7.05;3.03;;;;;;;;;;5113303;28;20478;-61
2022/04/03 07:56:52;;;;;;;6.55;3.00;;;;;;;;;;5114902;28;20051;-60
2022/04/03 07:59:18;;;;;;;6.50;2.85;;;;;;;;;;5115020;28;20031;-60
2022/04/03 08:01:44;;;;;;;6.70;3.85;;;;;;;;;;5114848;28;20039;-61
2022/04/03 08:04:11;;;;;;;7.18;4.03;;;;;;;;;;5114833;28;20065;-61
2022/04/03 08:06:37;;;;;;;6.97;3.95;;;;;;;;;;5114893;28;20022;-61
2022/04/03 08:09:05;;;;;;;8.18;3.60;;;;;;;;;;5114769;28;20132;-61
2022/04/03 08:11:31;;;;;;;8.27;3.83;;;;;;;;;;5114820;28;20019;-61
2022/04/03 08:13:57;;;;;;;7.13;3.88;;;;;;;;;;5114533;28;20393;-60
2022/04/03 08:16:23;;;;;;;7.70;3.70;;;;;;;;;;5114407;28;20393;-60
2022/04/03 08:18:50;;;;;;;7.15;3.42;;;;;;;;;;5114558;28;20042;-61
2022/04/03 08:21:18;;;;;;;8.38;3.85;;;;;;;;;;5114399;28;20031;-60
2022/04/03 08:23:44;;;;;;;12.43;4.40;;;;;;;;;;5114714;28;20073;-61
2022/04/03 08:26:11;;;;;;;15.02;5.05;;;;;;;;;;5114598;28;20020;-60
2022/04/03 08:28:37;;;;;;;8.05;4.53;;;;;;;;;;5096300;28;20020;-60
2022/04/03 08:31:03;;;;;;;10.40;4.70;;;;;;;;;;5114371;28;20027;-60
2022/04/03 08:33:29;;;;;;;9.35;4.55;;;;;;;;;;5114212;28;20020;-61
2022/04/03 08:35:57;;;;;;;9.93;4.43;;;;;;;;;;5114503;28;20042;-61
2022/04/03 08:38:23;;;;;;;8.98;5.43;;;;;;;;;;5114297;28;20467;-60
2022/04/03 08:40:49;;;;;;;7.35;4.30;;;;;;;;;;5114228;28;20026;-61
2022/04/03 08:43:15;;;;;;;9.13;4.88;;;;;;;;;;5114199;28;20478;-61
2022/04/03 08:45:41;;;;;;;10.82;5.47;;;;;;;;;;5113971;28;20054;-60
2022/04/03 08:48:08;;;;;;;9.95;3.90;;;;;;;;;;5113948;28;20458;-60
2022/04/03 08:50:38;;;;;;;9.77;4.00;;;;;;;;;;5109800;28;20020;-61
2022/04/03 08:53:06;;;;;;;9.77;4.82;;;;;;;;;;5093900;28;20432;-60
2022/04/03 08:55:32;;;;;;;10.27;4.22;;;;;;;;;;5093693;28;20105;-61
2022/04/03 08:57:58;;;;;;;9.20;3.90;;;;;;;;;;5093574;28;20031;-60
2022/04/03 09:00:25;;;;;;;8.38;4.60;;;;;;;;;;5075620;28;20419;-60
2022/04/03 09:02:51;;;;;;;10.90;4.05;;;;;;;;;;5093665;28;20360;-60
2022/04/03 09:05:17;;;;;;;9.25;4.57;;;;;;;;;;5093403;28;20020;-59
2022/04/03 09:07:44;;;;;;;14.80;4.32;;;;;;;;;;5093415;28;20056;-60
2022/04/03 09:10:13;;;;;;;14.23;5.53;;;;;;;;;;5093382;28;20024;-60
2022/04/03 09:12:49;;;;;;;10.18;5.07;;;;;;;;;;5093220;28;20008;-60
2022/04/03 09:15:16;;;;;;;10.35;5.00;;;;;;;;;;5093023;28;20044;-60
2022/04/03 09:17:45;;;;;;;13.38;5.30;;;;;;;;;;5092820;28;20032;-60
2022/04/03 09:20:18;;;;;;;11.88;4.53;;;;;;;;;;5093263;28;20028;-60
2022/04/03 09:22:45;;;;;;;10.63;5.18;;;;;;;;;;5093296;28;20019;-60
2022/04/03 09:25:12;;;;;;;8.98;4.60;;;;;;;;;;5093063;28;20020;-60
2022/04/03 09:27:49;;;;;;;10.57;4.85;;;;;;;;;;5093236;28;20479;-60
2022/04/03 09:30:15;;;;;;;11.40;4.53;;;;;;;;;;5093104;28;20031;-61
2022/04/03 09:32:52;;;;;;;7.35;4.22;;;;;;;;;;5093055;28;20094;-60
2022/04/03 09:35:19;;;;;;;9.40;4.55;;;;;;;;;;5092912;28;20020;-60
2022/04/03 09:38:04;;;;;;;16.80;4.00;;;;;;;;;;5092784;28;20208;-61
2022/04/03 09:40:31;;;;;;;15.30;4.45;;;;;;;;;;5092807;28;20089;-60
2022/04/03 09:43:16;;;;;;;16.15;5.00;;;;;;;;;;5092514;28;20021;-60
2022/04/03 09:45:55;;;;;;;15.68;4.57;;;;;;;;;;5092569;28;20054;-60
2022/04/03 09:48:31;;;;;;;12.57;4.80;;;;;;;;;;5092643;28;20074;-61
2022/04/03 09:51:03;;;;;;;22.48;5.45;;;;;;;;;;5100146;28;20024;-60
2022/04/03 09:53:29;;;;;;;;;;;;;;;;;;5113549;28;20027;-60
2022/04/03 09:55:56;;;;;;;9.52;4.30;;;;;;;;;;5112918;28;19908;-61
2022/04/03 09:58:23;;;;;;;14.65;4.70;;;;;;;;;;5112599;28;20482;-61
2022/04/03 10:00:49;;;;;;;13.38;4.00;;;;;;;;;;5112650;28;20022;-60
2022/04/03 10:03:16;;;;;;;10.30;4.60;;;;;;;;;;5112535;28;20843;-61
2022/04/03 10:05:43;;;;;;;10.05;4.40;;;;;;;;;;5094251;28;20023;-61
2022/04/03 10:08:09;;;;;;;12.98;5.82;;;;;;;;;;5112542;28;20027;-61
2022/04/03 10:10:36;;;;;;;10.98;4.65;;;;;;;;;;5112580;28;20023;-61
2022/04/03 10:13:03;;;;;;;10.75;5.45;;;;;;;;;;5112749;28;20528;-60
2022/04/03 10:15:29;;;;;;;11.65;5.35;;;;;;;;;;5108880;28;20360;-61
2022/04/03 10:17:56;;;;;;;9.48;4.70;;;;;;;;;;5105998;28;20039;-60
2022/04/03 10:20:25;;;;;;;9.98;4.63;;;;;;;;;;5112218;28;20024;-61
2022/04/03 10:22:54;;;;;;;9.23;4.45;;;;;;;;;;5112389;28;20032;-60
2022/04/03 10:25:23;;;;;;;9.60;4.53;;;;;;;;;;5112150;28;20065;-61
2022/04/03 10:27:50;;;;;;;13.25;5.22;;;;;;;;;;5111871;28;20008;-61
2022/04/03 10:30:17;;;;;;;16.95;6.05;;;;;;;;;;5112060;28;20504;-60
2022/04/03 10:32:56;;;;;;;27.73;7.28;;;;;;;;;;5112313;28;20038;-61
2022/04/03 10:35:22;;;;;;;24.17;6.60;;;;;;;;;;5112487;28;20043;-61
2022/04/03 10:37:58;;;;;;;18.25;5.72;;;;;;;;;;5106520;28;20617;-61
2022/04/03 10:40:29;;;;;;;18.10;5.85;;;;;;;;;;5100210;28;20024;-61
2022/04/03 10:43:01;;;;;;;20.88;5.70;;;;;;;;;;5091879;28;20055;-61
2022/04/03 10:45:32;;;;;;;11.32;5.22;;;;;;;;;;5111860;28;20115;-61
2022/04/03 10:48:17;;;;;;;12.80;5.60;;;;;;;;;;5112083;28;20047;-61
2022/04/03 10:50:56;;;;;;;20.40;6.00;;;;;;;;;;5111885;28;20055;-61
2022/04/03 10:53:26;;;;;;;11.73;4.78;;;;;;;;;;5112115;28;20020;-61
2022/04/03 10:55:56;;;;;;;12.40;4.65;;;;;;;;;;5107007;28;20022;-61
2022/04/03 10:58:22;;;;;;;11.70;4.55;;;;;;;;;;5092095;28;20176;-61
2022/04/03 11:00:52;;;;;;;16.45;5.25;;;;;;;;;;5091953;28;20028;-61
2022/04/03 11:03:18;;;;;;;12.10;4.75;;;;;;;;;;5092023;28;20012;-61
2022/04/03 11:05:48;;;;;;;13.32;6.22;;;;;;;;;;5091963;28;20103;-61
2022/04/03 11:08:14;;;;;;;8.48;4.70;;;;;;;;;;5092017;28;20031;-61
2022/04/03 11:10:46;;;;;;;10.90;4.70;;;;;;;;;;5092112;28;20020;-61
2022/04/03 11:13:12;;;;;;;8.55;4.43;;;;;;;;;;5092039;28;20032;-61
2022/04/03 11:15:45;;;;;;;11.25;4.97;;;;;;;;;;5091890;28;20111;-61
2022/04/03 11:18:27;;;;;;;10.20;4.88;;;;;;;;;;5091751;28;20035;-61
2022/04/03 11:21:13;;;;;;;10.68;4.03;;;;;;;;;;5092074;28;20486;-61
2022/04/03 11:23:45;;;;;;;10.02;4.28;;;;;;;;;;5092061;28;20038;-61
2022/04/03 11:26:11;;;;;;;9.30;3.90;;;;;;;;;;5091943;28;20020;-60
2022/04/03 11:28:37;;;;;;;11.88;4.88;;;;;;;;;;5092693;28;20123;-61
2022/04/03 11:31:04;;;;;;;13.02;4.25;;;;;;;;;;5096426;28;20070;-61
2022/04/03 11:33:31;;;;;;;8.95;4.53;;;;;;;;;;5110798;28;20070;-61
2022/04/03 11:36:07;;;;;;;12.57;5.15;;;;;;;;;;5116206;28;20026;-61
2022/04/03 11:38:34;;;;;;;10.15;4.82;;;;;;;;;;5115853;28;20138;-61
2022/04/03 11:41:02;;;;;;;7.85;3.92;;;;;;;;;;5115723;28;20020;-61
2022/04/03 11:43:28;;;;;;;10.18;4.55;;;;;;;;;;5110894;28;20063;-60
2022/04/03 11:45:56;;;;;;;13.52;4.78;;;;;;;;;;5098020;28;20020;-61
2022/04/03 11:48:23;;;;;;;12.18;4.47;;;;;;;;;;5114879;28;20030;-61
2022/04/03 11:50:52;;;;;;;11.98;5.30;;;;;;;;;;5114731;28;20089;-61
2022/04/03 11:53:18;;;;;;;15.85;4.93;;;;;;;;;;5112038;28;20107;-61
2022/04/03 11:55:45;;;;;;;14.73;5.10;;;;;;;;;;5094919;28;20024;-61
2022/04/03 11:58:11;;;;;;;18.10;4.65;;;;;;;;;;5095022;28;20663;-61
2022/04/03 12:00:45;;;;;;;15.63;4.90;;;;;;;;;;5094918;28;20044;-60
2022/04/03 12:03:11;;;;;;;14.32;4.95;;;;;;;;;;5095065;28;20024;-61
2022/04/03 12:05:41;;;;;;;13.38;5.30;;;;;;;;;;5094861;28;20487;-61
2022/04/03 12:08:07;;;;;;;18.75;5.35;;;;;;;;;;5095014;28;20024;-61
2022/04/03 12:10:33;;;;;;;16.00;4.93;;;;;;;;;;5094793;28;20024;-61
2022/04/03 12:12:59;;;;;;;9.40;4.70;;;;;;;;;;5094803;28;20638;-61
2022/04/03 12:15:27;;;;;;;9.70;4.25;;;;;;;;;;5094890;28;20038;-62
2022/04/03 12:17:57;;;;;;;8.57;4.10;;;;;;;;;;5094828;28;20036;-61
2022/04/03 12:20:23;;;;;;;10.45;4.22;;;;;;;;;;5094525;28;20020;-61
2022/04/03 12:22:49;;;;;;;10.07;4.28;;;;;;;;;;5094503;28;20024;-61
2022/04/03 12:25:15;;;;;;;10.52;4.03;;;;;;;;;;5094692;28;20383;-61
2022/04/03 12:27:42;;;;;;;7.22;4.00;;;;;;;;;;5094489;28;20020;-61
2022/04/03 12:30:09;;;;;;;9.55;3.88;;;;;;;;;;5094561;28;20031;-61
2022/04/03 12:32:36;;;;;;;10.07;4.03;;;;;;;;;;5101178;28;20024;-61
2022/04/03 12:35:05;;;;;;;9.15;4.63;;;;;;;;;;5114641;28;20012;-61
2022/04/03 12:37:35;;;;;;;8.63;3.70;;;;;;;;;;5114351;28;20035;-61
2022/04/03 12:40:08;;;;;;;8.32;4.22;;;;;;;;;;5114088;28;20114;-61
2022/04/03 12:42:48;;;;;;;8.55;3.95;;;;;;;;;;5096404;28;20027;-61
2022/04/03 12:45:18;;;;;;;12.13;3.97;;;;;;;;;;5096208;28;20305;-61
2022/04/03 12:47:47;;;;;;;10.23;4.15;;;;;;;;;;5114428;28;20172;-61
2022/04/03 12:50:25;;;;;;;9.32;4.63;;;;;;;;;;5114487;28;20094;-61
2022/04/03 12:52:53;;;;;;;9.00;3.85;;;;;;;;;;5114413;28;20540;-61
2022/04/03 12:55:22;;;;;;;9.68;3.83;;;;;;;;;;5114450;28;20024;-61
2022/04/03 13:00:56;;;;;;;8.13;4.22;;;;;;;;;;5114479;28;20031;-61
2022/04/03 13:03:29;;;;;;;7.22;3.55;;;;;;;;;;5114260;28;20114;-61
2022/04/03 13:05:55;;;;;;;7.72;3.85;;;;;;;;;;5114237;28;20366;-61
2022/04/03 13:08:22;;;;;;;10.38;3.90;;;;;;;;;;5113978;28;20016;-61
2022/04/03 13:10:52;;;;;;;7.25;3.97;;;;;;;;;;5114003;28;20055;-61
2022/04/03 13:13:38;;;;;;;7.50;3.92;;;;;;;;;;5114188;28;20023;-61
2022/04/03 13:16:04;;;;;;;6.65;3.47;;;;;;;;;;5113843;28;20046;-61
2022/04/03 13:18:30;;;;;;;10.68;3.75;;;;;;;;;;5113667;28;20030;-61
2022/04/03 13:21:01;;;;;;;9.15;3.70;;;;;;;;;;5113866;28;20102;-60
2022/04/03 13:23:31;;;;;;;6.70;3.95;;;;;;;;;;5113943;28;20386;-61
2022/04/03 13:25:57;;;;;;;9.05;4.00;;;;;;;;;;5113752;28;20020;-61
2022/04/03 13:28:23;;;;;;;9.15;3.45;;;;;;;;;;5113780;28;20028;-61
2022/04/03 13:30:49;;;;;;;6.50;3.38;;;;;;;;;;5113667;28;20078;-61
2022/04/03 13:33:15;;;;;;;8.15;3.92;;;;;;;;;;5101143;28;20035;-61
2022/04/03 13:35:42;;;;;;;6.63;3.67;;;;;;;;;;5093309;28;20113;-61
2022/04/03 13:38:08;;;;;;;8.32;4.13;;;;;;;;;;5093079;28;20044;-61
2022/04/03 13:40:35;;;;;;;6.72;3.78;;;;;;;;;;5092795;28;20459;-61
2022/04/03 13:43:02;;;;;;;10.88;5.53;;;;;;;;;;5092875;28;20125;-61
2022/04/03 13:48:13;;;;;;;10.32;3.85;;;;;;;;;;5106054;28;20031;-61
2022/04/03 13:50:39;;;;;;;8.02;4.38;;;;;;;;;;5112602;28;20020;-61
2022/04/03 13:53:05;;;;;;;10.38;4.22;;;;;;;;;;5112875;28;20051;-62
2022/04/03 13:55:32;;;;;;;13.60;4.53;;;;;;;;;;5101920;28;20115;-61
2022/04/03 13:57:58;;;;;;;8.25;3.65;;;;;;;;;;5095341;28;20039;-61
2022/04/03 14:00:25;;;;;;;18.58;4.38;;;;;;;;;;5092659;28;20100;-62
2022/04/03 14:02:52;;;;;;;18.10;4.40;;;;;;;;;;5092509;28;20483;-61
2022/04/03 14:05:18;;;;;;;11.82;3.90;;;;;;;;;;5092748;28;20024;-61
2022/04/03 14:07:44;;;;;;;35.67;4.80;;;;;;;;;;5109083;28;20039;-61
2022/04/03 14:10:10;;;;;;;10.85;4.50;;;;;;;;;;5112943;28;20098;-61
2022/04/03 14:12:37;;;;;;;12.20;3.95;;;;;;;;;;5112634;28;20073;-61
2022/04/03 14:15:05;;;;;;;13.18;3.72;;;;;;;;;;5112180;28;20043;-61
2022/04/03 14:17:31;;;;;;;12.25;4.38;;;;;;;;;;5108713;28;20466;-61
2022/04/03 14:19:57;;;;;;;11.10;3.35;;;;;;;;;;5096790;28;20103;-61
2022/04/03 14:22:23;;;;;;;10.65;4.25;;;;;;;;;;5107050;28;20015;-61
2022/04/03 14:24:49;;;;;;;9.82;3.67;;;;;;;;;;5093121;28;20056;-61
2022/04/03 14:27:15;;;;;;;11.48;3.80;;;;;;;;;;5098314;28;20035;-62
2022/04/03 14:29:42;;;;;;;9.25;3.83;;;;;;;;;;5112546;28;20020;-61
2022/04/03 14:32:08;;;;;;;6.82;3.60;;;;;;;;;;5112270;28;20019;-61
2022/04/03 14:34:34;;;;;;;9.73;3.45;;;;;;;;;;5112441;28;20466;-62
2022/04/03 14:37:00;;;;;;;9.35;3.80;;;;;;;;;;5112436;28;20020;-61
2022/04/03 14:39:28;;;;;;;9.02;4.20;;;;;;;;;;5112405;28;20059;-61
2022/04/03 14:41:54;;;;;;;9.02;3.60;;;;;;;;;;5112449;28;20457;-61
2022/04/03 14:44:21;;;;;;;7.72;4.00;;;;;;;;;;5112393;28;20027;-61
2022/04/03 14:46:47;;;;;;;7.53;3.58;;;;;;;;;;5112580;28;20020;-61